sensor_id;sensor_type;location;lat;lon;timestamp;P1;durP1;ratioP1;P2;durP2;ratioP2
65753;SDS011;52488;47.502;18.940;2023-01-19T00:00:42;6.47;;;3.80;;
65753;SDS011;52488;47.502;18.940;2023-01-19T00:01:45;6.65;;;4.10;;
65753;SDS011;52488;47.502;18.940;2023-01-19T00:02:48;5.75;;;3.33;;
65753;SDS011;52488;47.502;18.940;2023-01-19T00:03:52;7.68;;;4.28;;
65753;SDS011;52488;47.502;18.940;2023-01-19T00:04:55;6.90;;;4.40;;
65753;SDS011;52488;47.502;18.940;2023-01-19T00:05:58;4.40;;;3.58;;
65753;SDS011;52488;47.502;18.940;2023-01-19T00:07:06;5.50;;;3.87;;
65753;SDS011;52488;47.502;18.940;2023-01-19T00:08:09;6.68;;;3.75;;
65753;SDS011;52488;47.502;18.940;2023-01-19T00:09:16;6.30;;;4.03;;
65753;SDS011;52488;47.502;18.940;2023-01-19T00:10:19;6.65;;;3.90;;
65753;SDS011;52488;47.502;18.940;2023-01-19T00:11:22;6.65;;;3.97;;
65753;SDS011;52488;47.502;18.940;2023-01-19T00:12:25;7.65;;;4.43;;
65753;SDS011;52488;47.502;18.940;2023-01-19T00:13:28;6.00;;;4.15;;
65753;SDS011;52488;47.502;18.940;2023-01-19T00:14:33;7.00;;;4.28;;
65753;SDS011;52488;47.502;18.940;2023-01-19T00:15:36;5.93;;;3.62;;
65753;SDS011;52488;47.502;18.940;2023-01-19T00:16:39;5.55;;;3.62;;
65753;SDS011;52488;47.502;18.940;2023-01-19T00:17:42;6.50;;;4.00;;
65753;SDS011;52488;47.502;18.940;2023-01-19T00:18:45;5.93;;;3.92;;
65753;SDS011;52488;47.502;18.940;2023-01-19T00:19:48;5.10;;;3.90;;
65753;SDS011;52488;47.502;18.940;2023-01-19T00:20:51;4.90;;;3.58;;
65753;SDS011;52488;47.502;18.940;2023-01-19T00:21:54;5.28;;;3.58;;
65753;SDS011;52488;47.502;18.940;2023-01-19T00:22:57;5.35;;;3.08;;
65753;SDS011;52488;47.502;18.940;2023-01-19T00:24:01;6.53;;;3.22;;
65753;SDS011;52488;47.502;18.940;2023-01-19T00:25:05;3.55;;;2.50;;
65753;SDS011;52488;47.502;18.940;2023-01-19T00:26:08;3.90;;;2.80;;
65753;SDS011;52488;47.502;18.940;2023-01-19T00:27:16;3.78;;;3.05;;
65753;SDS011;52488;47.502;18.940;2023-01-19T00:28:19;5.12;;;3.67;;
65753;SDS011;52488;47.502;18.940;2023-01-19T00:29:24;4.47;;;3.08;;
65753;SDS011;52488;47.502;18.940;2023-01-19T00:30:29;3.90;;;2.90;;
65753;SDS011;52488;47.502;18.940;2023-01-19T00:31:32;4.72;;;2.58;;
65753;SDS011;52488;47.502;18.940;2023-01-19T00:32:37;5.20;;;3.15;;
65753;SDS011;52488;47.502;18.940;2023-01-19T00:33:40;3.62;;;2.75;;
65753;SDS011;52488;47.502;18.940;2023-01-19T00:34:43;4.37;;;3.00;;
65753;SDS011;52488;47.502;18.940;2023-01-19T00:35:51;3.55;;;2.70;;
65753;SDS011;52488;47.502;18.940;2023-01-19T00:36:54;4.43;;;3.15;;
65753;SDS011;52488;47.502;18.940;2023-01-19T00:37:57;4.65;;;2.90;;
65753;SDS011;52488;47.502;18.940;2023-01-19T00:39:01;4.25;;;3.10;;
65753;SDS011;52488;47.502;18.940;2023-01-19T00:40:04;3.90;;;2.87;;
65753;SDS011;52488;47.502;18.940;2023-01-19T00:41:08;4.22;;;3.00;;
65753;SDS011;52488;47.502;18.940;2023-01-19T00:42:11;3.47;;;2.25;;
65753;SDS011;52488;47.502;18.940;2023-01-19T00:43:32;3.22;;;2.37;;
65753;SDS011;52488;47.502;18.940;2023-01-19T00:44:35;2.42;;;2.00;;
65753;SDS011;52488;47.502;18.940;2023-01-19T00:45:38;3.50;;;2.42;;
65753;SDS011;52488;47.502;18.940;2023-01-19T00:46:42;3.80;;;2.47;;
65753;SDS011;52488;47.502;18.940;2023-01-19T00:47:48;2.70;;;2.28;;
65753;SDS011;52488;47.502;18.940;2023-01-19T00:48:58;4.97;;;2.70;;
65753;SDS011;52488;47.502;18.940;2023-01-19T00:50:01;3.92;;;2.80;;
65753;SDS011;52488;47.502;18.940;2023-01-19T00:51:05;4.43;;;2.45;;
65753;SDS011;52488;47.502;18.940;2023-01-19T00:52:07;3.00;;;2.67;;
65753;SDS011;52488;47.502;18.940;2023-01-19T00:53:11;5.85;;;2.45;;
65753;SDS011;52488;47.502;18.940;2023-01-19T00:54:15;2.97;;;2.40;;
65753;SDS011;52488;47.502;18.940;2023-01-19T00:55:18;3.40;;;2.47;;
65753;SDS011;52488;47.502;18.940;2023-01-19T00:56:21;3.05;;;2.40;;
65753;SDS011;52488;47.502;18.940;2023-01-19T00:57:24;4.90;;;2.87;;
65753;SDS011;52488;47.502;18.940;2023-01-19T00:58:28;4.70;;;2.97;;
65753;SDS011;52488;47.502;18.940;2023-01-19T00:59:31;4.30;;;2.75;;
65753;SDS011;52488;47.502;18.940;2023-01-19T01:00:34;2.90;;;2.50;;
65753;SDS011;52488;47.502;18.940;2023-01-19T01:01:37;2.72;;;2.20;;
65753;SDS011;52488;47.502;18.940;2023-01-19T01:02:48;3.08;;;2.35;;
65753;SDS011;52488;47.502;18.940;2023-01-19T01:03:52;2.05;;;1.87;;
65753;SDS011;52488;47.502;18.940;2023-01-19T01:04:57;2.95;;;1.75;;
65753;SDS011;52488;47.502;18.940;2023-01-19T01:06:04;2.25;;;1.70;;
65753;SDS011;52488;47.502;18.940;2023-01-19T01:07:10;2.35;;;1.98;;
65753;SDS011;52488;47.502;18.940;2023-01-19T01:08:13;2.10;;;1.83;;
65753;SDS011;52488;47.502;18.940;2023-01-19T01:09:16;3.78;;;2.08;;
65753;SDS011;52488;47.502;18.940;2023-01-19T01:10:19;2.45;;;1.40;;
65753;SDS011;52488;47.502;18.940;2023-01-19T01:11:25;1.37;;;1.27;;
65753;SDS011;52488;47.502;18.940;2023-01-19T01:12:28;1.92;;;1.50;;
65753;SDS011;52488;47.502;18.940;2023-01-19T01:13:31;2.25;;;1.55;;
65753;SDS011;52488;47.502;18.940;2023-01-19T01:14:36;2.25;;;1.87;;
65753;SDS011;52488;47.502;18.940;2023-01-19T01:15:39;1.92;;;1.70;;
65753;SDS011;52488;47.502;18.940;2023-01-19T01:16:42;2.62;;;1.90;;
65753;SDS011;52488;47.502;18.940;2023-01-19T01:17:45;1.90;;;1.50;;
65753;SDS011;52488;47.502;18.940;2023-01-19T01:18:54;1.60;;;1.40;;
65753;SDS011;52488;47.502;18.940;2023-01-19T01:19:57;1.27;;;1.20;;
65753;SDS011;52488;47.502;18.940;2023-01-19T01:21:01;1.55;;;1.37;;
65753;SDS011;52488;47.502;18.940;2023-01-19T01:22:08;1.60;;;1.48;;
65753;SDS011;52488;47.502;18.940;2023-01-19T01:23:12;1.40;;;1.30;;
65753;SDS011;52488;47.502;18.940;2023-01-19T01:24:15;1.83;;;1.40;;
65753;SDS011;52488;47.502;18.940;2023-01-19T01:25:21;1.73;;;1.30;;
65753;SDS011;52488;47.502;18.940;2023-01-19T01:26:25;1.50;;;1.40;;
65753;SDS011;52488;47.502;18.940;2023-01-19T01:27:29;1.20;;;1.10;;
65753;SDS011;52488;47.502;18.940;2023-01-19T01:28:32;2.03;;;1.40;;
65753;SDS011;52488;47.502;18.940;2023-01-19T01:29:35;1.48;;;0.90;;
65753;SDS011;52488;47.502;18.940;2023-01-19T01:30:38;0.60;;;0.60;;
65753;SDS011;52488;47.502;18.940;2023-01-19T01:31:42;0.95;;;0.95;;
65753;SDS011;52488;47.502;18.940;2023-01-19T01:32:45;1.02;;;0.70;;
65753;SDS011;52488;47.502;18.940;2023-01-19T01:33:48;1.00;;;0.80;;
65753;SDS011;52488;47.502;18.940;2023-01-19T01:34:51;0.80;;;0.65;;
65753;SDS011;52488;47.502;18.940;2023-01-19T01:35:54;1.60;;;0.88;;
65753;SDS011;52488;47.502;18.940;2023-01-19T01:36:57;0.70;;;0.70;;
65753;SDS011;52488;47.502;18.940;2023-01-19T01:38:00;0.60;;;0.52;;
65753;SDS011;52488;47.502;18.940;2023-01-19T01:39:03;0.65;;;0.65;;
65753;SDS011;52488;47.502;18.940;2023-01-19T01:40:06;0.50;;;0.50;;
65753;SDS011;52488;47.502;18.940;2023-01-19T01:41:15;0.80;;;0.62;;
65753;SDS011;52488;47.502;18.940;2023-01-19T01:42:18;0.70;;;0.70;;
65753;SDS011;52488;47.502;18.940;2023-01-19T01:43:39;0.60;;;0.60;;
65753;SDS011;52488;47.502;18.940;2023-01-19T01:44:51;1.48;;;0.80;;
65753;SDS011;52488;47.502;18.940;2023-01-19T01:45:57;0.98;;;0.70;;
65753;SDS011;52488;47.502;18.940;2023-01-19T01:47:00;0.85;;;0.65;;
65753;SDS011;52488;47.502;18.940;2023-01-19T01:49:29;0.68;;;0.68;;
65753;SDS011;52488;47.502;18.940;2023-01-19T01:50:33;1.52;;;0.90;;
65753;SDS011;52488;47.502;18.940;2023-01-19T01:51:41;1.25;;;0.60;;
65753;SDS011;52488;47.502;18.940;2023-01-19T01:52:51;0.90;;;0.80;;
65753;SDS011;52488;47.502;18.940;2023-01-19T01:55:21;0.75;;;0.75;;
65753;SDS011;52488;47.502;18.940;2023-01-19T01:56:30;1.87;;;0.90;;
65753;SDS011;52488;47.502;18.940;2023-01-19T01:57:37;1.15;;;0.75;;
65753;SDS011;52488;47.502;18.940;2023-01-19T01:58:43;1.23;;;1.00;;
65753;SDS011;52488;47.502;18.940;2023-01-19T01:59:47;1.17;;;1.08;;
65753;SDS011;52488;47.502;18.940;2023-01-19T02:00:52;1.42;;;0.95;;
65753;SDS011;52488;47.502;18.940;2023-01-19T02:02:20;0.80;;;0.80;;
65753;SDS011;52488;47.502;18.940;2023-01-19T02:03:45;0.80;;;0.80;;
65753;SDS011;52488;47.502;18.940;2023-01-19T02:04:50;1.00;;;0.90;;
65753;SDS011;52488;47.502;18.940;2023-01-19T02:06:01;1.20;;;1.02;;
65753;SDS011;52488;47.502;18.940;2023-01-19T02:07:10;1.05;;;0.95;;
65753;SDS011;52488;47.502;18.940;2023-01-19T02:08:38;1.23;;;1.10;;
65753;SDS011;52488;47.502;18.940;2023-01-19T02:10:13;0.80;;;0.80;;
65753;SDS011;52488;47.502;18.940;2023-01-19T02:12:57;1.17;;;0.98;;
65753;SDS011;52488;47.502;18.940;2023-01-19T02:14:20;1.27;;;0.88;;
65753;SDS011;52488;47.502;18.940;2023-01-19T02:15:22;1.08;;;0.98;;
65753;SDS011;52488;47.502;18.940;2023-01-19T02:16:25;1.90;;;1.00;;
65753;SDS011;52488;47.502;18.940;2023-01-19T02:17:28;1.23;;;0.80;;
65753;SDS011;52488;47.502;18.940;2023-01-19T02:18:32;1.45;;;1.00;;
65753;SDS011;52488;47.502;18.940;2023-01-19T02:19:38;0.70;;;0.60;;
65753;SDS011;52488;47.502;18.940;2023-01-19T02:20:46;1.98;;;0.80;;
65753;SDS011;52488;47.502;18.940;2023-01-19T02:23:19;1.25;;;0.90;;
65753;SDS011;52488;47.502;18.940;2023-01-19T02:24:34;1.33;;;0.90;;
65753;SDS011;52488;47.502;18.940;2023-01-19T02:25:37;0.62;;;0.62;;
65753;SDS011;52488;47.502;18.940;2023-01-19T02:26:43;1.02;;;0.82;;
65753;SDS011;52488;47.502;18.940;2023-01-19T02:27:48;2.00;;;1.20;;
65753;SDS011;52488;47.502;18.940;2023-01-19T02:28:54;0.77;;;0.77;;
65753;SDS011;52488;47.502;18.940;2023-01-19T02:30:00;0.70;;;0.70;;
65753;SDS011;52488;47.502;18.940;2023-01-19T02:31:05;0.90;;;0.80;;
65753;SDS011;52488;47.502;18.940;2023-01-19T02:32:08;0.93;;;0.80;;
65753;SDS011;52488;47.502;18.940;2023-01-19T02:33:11;1.15;;;0.90;;
65753;SDS011;52488;47.502;18.940;2023-01-19T02:34:15;1.83;;;0.80;;
65753;SDS011;52488;47.502;18.940;2023-01-19T02:35:21;1.45;;;0.93;;
65753;SDS011;52488;47.502;18.940;2023-01-19T02:36:26;0.60;;;0.57;;
65753;SDS011;52488;47.502;18.940;2023-01-19T02:37:33;0.62;;;0.60;;
65753;SDS011;52488;47.502;18.940;2023-01-19T02:38:39;1.15;;;0.70;;
65753;SDS011;52488;47.502;18.940;2023-01-19T02:39:52;0.60;;;0.60;;
65753;SDS011;52488;47.502;18.940;2023-01-19T02:41:00;0.68;;;0.68;;
65753;SDS011;52488;47.502;18.940;2023-01-19T02:42:11;0.55;;;0.50;;
65753;SDS011;52488;47.502;18.940;2023-01-19T02:43:35;0.70;;;0.70;;
65753;SDS011;52488;47.502;18.940;2023-01-19T02:44:42;0.50;;;0.50;;
65753;SDS011;52488;47.502;18.940;2023-01-19T02:45:48;0.60;;;0.60;;
65753;SDS011;52488;47.502;18.940;2023-01-19T02:46:53;0.60;;;0.60;;
65753;SDS011;52488;47.502;18.940;2023-01-19T02:47:56;0.60;;;0.60;;
65753;SDS011;52488;47.502;18.940;2023-01-19T02:48:59;0.50;;;0.50;;
65753;SDS011;52488;47.502;18.940;2023-01-19T02:50:02;1.05;;;0.70;;
65753;SDS011;52488;47.502;18.940;2023-01-19T02:51:16;0.60;;;0.60;;
65753;SDS011;52488;47.502;18.940;2023-01-19T02:52:26;0.70;;;0.57;;
65753;SDS011;52488;47.502;18.940;2023-01-19T02:56:36;0.60;;;0.60;;
65753;SDS011;52488;47.502;18.940;2023-01-19T02:58:08;0.57;;;0.50;;
65753;SDS011;52488;47.502;18.940;2023-01-19T02:59:34;3.22;;;0.73;;
65753;SDS011;52488;47.502;18.940;2023-01-19T03:00:51;1.15;;;0.40;;
65753;SDS011;52488;47.502;18.940;2023-01-19T03:02:43;0.50;;;0.50;;
65753;SDS011;52488;47.502;18.940;2023-01-19T03:03:34;0.57;;;0.50;;
65753;SDS011;52488;47.502;18.940;2023-01-19T03:05:08;0.40;;;0.40;;
65753;SDS011;52488;47.502;18.940;2023-01-19T03:06:41;0.75;;;0.73;;
65753;SDS011;52488;47.502;18.940;2023-01-19T03:08:00;0.70;;;0.70;;
65753;SDS011;52488;47.502;18.940;2023-01-19T03:09:12;0.65;;;0.50;;
65753;SDS011;52488;47.502;18.940;2023-01-19T03:11:35;0.65;;;0.65;;
65753;SDS011;52488;47.502;18.940;2023-01-19T03:12:45;0.57;;;0.50;;
65753;SDS011;52488;47.502;18.940;2023-01-19T03:15:10;0.52;;;0.52;;
65753;SDS011;52488;47.502;18.940;2023-01-19T03:16:29;0.40;;;0.40;;
65753;SDS011;52488;47.502;18.940;2023-01-19T03:17:36;0.43;;;0.43;;
65753;SDS011;52488;47.502;18.940;2023-01-19T03:18:40;0.40;;;0.40;;
65753;SDS011;52488;47.502;18.940;2023-01-19T03:19:48;0.35;;;0.35;;
65753;SDS011;52488;47.502;18.940;2023-01-19T03:20:54;0.88;;;0.60;;
65753;SDS011;52488;47.502;18.940;2023-01-19T03:22:02;0.50;;;0.50;;
65753;SDS011;52488;47.502;18.940;2023-01-19T03:23:09;0.50;;;0.50;;
65753;SDS011;52488;47.502;18.940;2023-01-19T03:24:14;1.05;;;0.50;;
65753;SDS011;52488;47.502;18.940;2023-01-19T03:25:20;0.30;;;0.30;;
65753;SDS011;52488;47.502;18.940;2023-01-19T03:26:27;0.30;;;0.30;;
65753;SDS011;52488;47.502;18.940;2023-01-19T03:27:34;0.40;;;0.40;;
65753;SDS011;52488;47.502;18.940;2023-01-19T03:28:42;0.47;;;0.47;;
65753;SDS011;52488;47.502;18.940;2023-01-19T03:29:48;1.73;;;0.40;;
65753;SDS011;52488;47.502;18.940;2023-01-19T03:30:58;0.40;;;0.40;;
65753;SDS011;52488;47.502;18.940;2023-01-19T03:32:06;0.40;;;0.40;;
65753;SDS011;52488;47.502;18.940;2023-01-19T03:33:16;0.30;;;0.30;;
65753;SDS011;52488;47.502;18.940;2023-01-19T03:34:27;0.40;;;0.20;;
65753;SDS011;52488;47.502;18.940;2023-01-19T03:35:31;0.30;;;0.30;;
65753;SDS011;52488;47.502;18.940;2023-01-19T03:36:45;0.40;;;0.40;;
65753;SDS011;52488;47.502;18.940;2023-01-19T03:37:53;0.45;;;0.45;;
65753;SDS011;52488;47.502;18.940;2023-01-19T03:38:59;0.40;;;0.40;;
65753;SDS011;52488;47.502;18.940;2023-01-19T03:40:06;0.30;;;0.30;;
65753;SDS011;52488;47.502;18.940;2023-01-19T03:41:12;0.32;;;0.32;;
65753;SDS011;52488;47.502;18.940;2023-01-19T03:42:18;0.35;;;0.32;;
65753;SDS011;52488;47.502;18.940;2023-01-19T03:43:21;0.90;;;0.50;;
65753;SDS011;52488;47.502;18.940;2023-01-19T03:44:26;0.40;;;0.40;;
65753;SDS011;52488;47.502;18.940;2023-01-19T03:45:31;0.80;;;0.47;;
65753;SDS011;52488;47.502;18.940;2023-01-19T03:46:36;0.22;;;0.22;;
65753;SDS011;52488;47.502;18.940;2023-01-19T03:47:40;0.40;;;0.40;;
65753;SDS011;52488;47.502;18.940;2023-01-19T03:48:44;0.30;;;0.30;;
65753;SDS011;52488;47.502;18.940;2023-01-19T03:49:47;0.62;;;0.28;;
65753;SDS011;52488;47.502;18.940;2023-01-19T03:50:53;0.28;;;0.28;;
65753;SDS011;52488;47.502;18.940;2023-01-19T03:51:57;0.40;;;0.40;;
65753;SDS011;52488;47.502;18.940;2023-01-19T03:53:08;0.57;;;0.40;;
65753;SDS011;52488;47.502;18.940;2023-01-19T03:54:13;0.20;;;0.20;;
65753;SDS011;52488;47.502;18.940;2023-01-19T03:55:16;0.20;;;0.20;;
65753;SDS011;52488;47.502;18.940;2023-01-19T03:56:23;0.75;;;0.52;;
65753;SDS011;52488;47.502;18.940;2023-01-19T03:57:27;0.25;;;0.25;;
65753;SDS011;52488;47.502;18.940;2023-01-19T03:58:30;0.30;;;0.30;;
65753;SDS011;52488;47.502;18.940;2023-01-19T03:59:33;0.30;;;0.30;;
65753;SDS011;52488;47.502;18.940;2023-01-19T04:00:36;0.20;;;0.20;;
65753;SDS011;52488;47.502;18.940;2023-01-19T04:01:40;0.52;;;0.40;;
65753;SDS011;52488;47.502;18.940;2023-01-19T04:02:43;0.20;;;0.20;;
65753;SDS011;52488;47.502;18.940;2023-01-19T04:03:46;0.30;;;0.30;;
65753;SDS011;52488;47.502;18.940;2023-01-19T04:04:49;0.45;;;0.30;;
65753;SDS011;52488;47.502;18.940;2023-01-19T04:05:52;0.82;;;0.40;;
65753;SDS011;52488;47.502;18.940;2023-01-19T04:06:57;0.40;;;0.40;;
65753;SDS011;52488;47.502;18.940;2023-01-19T04:08:01;0.30;;;0.30;;
65753;SDS011;52488;47.502;18.940;2023-01-19T04:09:04;0.40;;;0.20;;
65753;SDS011;52488;47.502;18.940;2023-01-19T04:10:07;0.28;;;0.28;;
65753;SDS011;52488;47.502;18.940;2023-01-19T04:11:14;0.47;;;0.40;;
65753;SDS011;52488;47.502;18.940;2023-01-19T04:12:20;0.40;;;0.40;;
65753;SDS011;52488;47.502;18.940;2023-01-19T04:13:23;0.73;;;0.35;;
65753;SDS011;52488;47.502;18.940;2023-01-19T04:14:29;0.40;;;0.40;;
65753;SDS011;52488;47.502;18.940;2023-01-19T04:15:32;0.35;;;0.30;;
65753;SDS011;52488;47.502;18.940;2023-01-19T04:16:35;0.20;;;0.20;;
65753;SDS011;52488;47.502;18.940;2023-01-19T04:17:38;0.40;;;0.40;;
65753;SDS011;52488;47.502;18.940;2023-01-19T04:18:42;0.40;;;0.40;;
65753;SDS011;52488;47.502;18.940;2023-01-19T04:19:44;0.30;;;0.30;;
65753;SDS011;52488;47.502;18.940;2023-01-19T04:20:48;0.50;;;0.30;;
65753;SDS011;52488;47.502;18.940;2023-01-19T04:21:51;0.40;;;0.40;;
65753;SDS011;52488;47.502;18.940;2023-01-19T04:22:57;0.40;;;0.25;;
65753;SDS011;52488;47.502;18.940;2023-01-19T04:24:02;0.75;;;0.40;;
65753;SDS011;52488;47.502;18.940;2023-01-19T04:25:06;0.45;;;0.45;;
65753;SDS011;52488;47.502;18.940;2023-01-19T04:26:09;0.40;;;0.40;;
65753;SDS011;52488;47.502;18.940;2023-01-19T04:27:13;0.60;;;0.60;;
65753;SDS011;52488;47.502;18.940;2023-01-19T04:28:18;0.90;;;0.40;;
65753;SDS011;52488;47.502;18.940;2023-01-19T04:29:20;0.37;;;0.32;;
65753;SDS011;52488;47.502;18.940;2023-01-19T04:30:24;0.50;;;0.50;;
65753;SDS011;52488;47.502;18.940;2023-01-19T04:31:29;0.52;;;0.40;;
65753;SDS011;52488;47.502;18.940;2023-01-19T04:32:32;0.88;;;0.55;;
65753;SDS011;52488;47.502;18.940;2023-01-19T04:33:35;0.60;;;0.60;;
65753;SDS011;52488;47.502;18.940;2023-01-19T04:34:38;0.40;;;0.40;;
65753;SDS011;52488;47.502;18.940;2023-01-19T04:35:41;0.40;;;0.40;;
65753;SDS011;52488;47.502;18.940;2023-01-19T04:36:46;0.35;;;0.35;;
65753;SDS011;52488;47.502;18.940;2023-01-19T04:37:52;0.57;;;0.50;;
65753;SDS011;52488;47.502;18.940;2023-01-19T04:38:56;0.47;;;0.47;;
65753;SDS011;52488;47.502;18.940;2023-01-19T04:39:59;0.85;;;0.52;;
65753;SDS011;52488;47.502;18.940;2023-01-19T04:41:02;0.60;;;0.60;;
65753;SDS011;52488;47.502;18.940;2023-01-19T04:42:05;0.30;;;0.30;;
65753;SDS011;52488;47.502;18.940;2023-01-19T04:43:08;0.40;;;0.40;;
65753;SDS011;52488;47.502;18.940;2023-01-19T04:44:11;0.50;;;0.50;;
65753;SDS011;52488;47.502;18.940;2023-01-19T04:45:14;0.50;;;0.50;;
65753;SDS011;52488;47.502;18.940;2023-01-19T04:46:18;0.40;;;0.40;;
65753;SDS011;52488;47.502;18.940;2023-01-19T04:47:21;0.60;;;0.50;;
65753;SDS011;52488;47.502;18.940;2023-01-19T04:48:24;0.62;;;0.60;;
65753;SDS011;52488;47.502;18.940;2023-01-19T04:49:27;0.37;;;0.37;;
65753;SDS011;52488;47.502;18.940;2023-01-19T04:50:31;0.82;;;0.40;;
65753;SDS011;52488;47.502;18.940;2023-01-19T04:51:34;0.30;;;0.30;;
65753;SDS011;52488;47.502;18.940;2023-01-19T04:52:37;0.30;;;0.30;;
65753;SDS011;52488;47.502;18.940;2023-01-19T04:53:41;0.32;;;0.32;;
65753;SDS011;52488;47.502;18.940;2023-01-19T04:54:43;0.28;;;0.28;;
65753;SDS011;52488;47.502;18.940;2023-01-19T04:55:46;0.30;;;0.20;;
65753;SDS011;52488;47.502;18.940;2023-01-19T04:56:54;0.43;;;0.40;;
65753;SDS011;52488;47.502;18.940;2023-01-19T04:57:57;1.30;;;0.20;;
65753;SDS011;52488;47.502;18.940;2023-01-19T04:59:00;0.70;;;0.35;;
65753;SDS011;52488;47.502;18.940;2023-01-19T05:00:04;0.35;;;0.35;;
65753;SDS011;52488;47.502;18.940;2023-01-19T05:01:10;0.73;;;0.22;;
65753;SDS011;52488;47.502;18.940;2023-01-19T05:02:14;0.15;;;0.15;;
65753;SDS011;52488;47.502;18.940;2023-01-19T05:03:16;0.20;;;0.20;;
65753;SDS011;52488;47.502;18.940;2023-01-19T05:04:20;0.68;;;0.50;;
65753;SDS011;52488;47.502;18.940;2023-01-19T05:05:23;0.30;;;0.30;;
65753;SDS011;52488;47.502;18.940;2023-01-19T05:06:28;1.58;;;0.40;;
65753;SDS011;52488;47.502;18.940;2023-01-19T05:07:31;0.82;;;0.35;;
65753;SDS011;52488;47.502;18.940;2023-01-19T05:08:34;0.45;;;0.43;;
65753;SDS011;52488;47.502;18.940;2023-01-19T05:09:37;0.95;;;0.40;;
65753;SDS011;52488;47.502;18.940;2023-01-19T05:10:40;0.73;;;0.40;;
65753;SDS011;52488;47.502;18.940;2023-01-19T05:11:43;0.40;;;0.40;;
65753;SDS011;52488;47.502;18.940;2023-01-19T05:12:46;1.10;;;0.55;;
65753;SDS011;52488;47.502;18.940;2023-01-19T05:13:50;0.57;;;0.55;;
65753;SDS011;52488;47.502;18.940;2023-01-19T05:14:53;0.40;;;0.40;;
65753;SDS011;52488;47.502;18.940;2023-01-19T05:15:56;0.50;;;0.37;;
65753;SDS011;52488;47.502;18.940;2023-01-19T05:16:59;1.90;;;0.45;;
65753;SDS011;52488;47.502;18.940;2023-01-19T05:18:04;0.45;;;0.32;;
65753;SDS011;52488;47.502;18.940;2023-01-19T05:19:07;0.20;;;0.20;;
65753;SDS011;52488;47.502;18.940;2023-01-19T05:20:10;0.85;;;0.62;;
65753;SDS011;52488;47.502;18.940;2023-01-19T05:21:17;0.98;;;0.77;;
65753;SDS011;52488;47.502;18.940;2023-01-19T05:22:20;0.93;;;0.90;;
65753;SDS011;52488;47.502;18.940;2023-01-19T05:23:23;1.48;;;1.17;;
65753;SDS011;52488;47.502;18.940;2023-01-19T05:24:26;1.52;;;1.30;;
65753;SDS011;52488;47.502;18.940;2023-01-19T05:25:29;1.45;;;1.05;;
65753;SDS011;52488;47.502;18.940;2023-01-19T05:26:32;1.20;;;0.98;;
65753;SDS011;52488;47.502;18.940;2023-01-19T05:27:36;1.30;;;1.10;;
65753;SDS011;52488;47.502;18.940;2023-01-19T05:28:40;0.65;;;0.60;;
65753;SDS011;52488;47.502;18.940;2023-01-19T05:29:43;0.70;;;0.70;;
65753;SDS011;52488;47.502;18.940;2023-01-19T05:30:48;0.60;;;0.60;;
65753;SDS011;52488;47.502;18.940;2023-01-19T05:31:55;0.80;;;0.80;;
65753;SDS011;52488;47.502;18.940;2023-01-19T05:32:58;0.60;;;0.60;;
65753;SDS011;52488;47.502;18.940;2023-01-19T05:34:02;1.00;;;0.88;;
65753;SDS011;52488;47.502;18.940;2023-01-19T05:35:06;0.50;;;0.50;;
65753;SDS011;52488;47.502;18.940;2023-01-19T05:36:10;0.70;;;0.70;;
65753;SDS011;52488;47.502;18.940;2023-01-19T05:37:12;0.40;;;0.40;;
65753;SDS011;52488;47.502;18.940;2023-01-19T05:38:16;1.17;;;0.30;;
65753;SDS011;52488;47.502;18.940;2023-01-19T05:39:30;0.20;;;0.20;;
65753;SDS011;52488;47.502;18.940;2023-01-19T05:40:33;0.20;;;0.20;;
65753;SDS011;52488;47.502;18.940;2023-01-19T05:41:36;0.30;;;0.20;;
65753;SDS011;52488;47.502;18.940;2023-01-19T05:42:39;1.23;;;0.37;;
65753;SDS011;52488;47.502;18.940;2023-01-19T05:43:42;0.40;;;0.40;;
65753;SDS011;52488;47.502;18.940;2023-01-19T05:44:45;0.43;;;0.40;;
65753;SDS011;52488;47.502;18.940;2023-01-19T05:45:48;0.40;;;0.40;;
65753;SDS011;52488;47.502;18.940;2023-01-19T05:46:51;0.40;;;0.40;;
65753;SDS011;52488;47.502;18.940;2023-01-19T05:47:55;0.40;;;0.40;;
65753;SDS011;52488;47.502;18.940;2023-01-19T05:48:58;0.40;;;0.40;;
65753;SDS011;52488;47.502;18.940;2023-01-19T05:50:05;0.37;;;0.32;;
65753;SDS011;52488;47.502;18.940;2023-01-19T05:51:09;0.40;;;0.40;;
65753;SDS011;52488;47.502;18.940;2023-01-19T05:52:12;0.37;;;0.37;;
65753;SDS011;52488;47.502;18.940;2023-01-19T05:53:15;0.85;;;0.60;;
65753;SDS011;52488;47.502;18.940;2023-01-19T05:54:19;1.23;;;0.77;;
65753;SDS011;52488;47.502;18.940;2023-01-19T05:55:22;0.93;;;0.65;;
65753;SDS011;52488;47.502;18.940;2023-01-19T05:56:28;0.60;;;0.60;;
65753;SDS011;52488;47.502;18.940;2023-01-19T05:57:31;0.70;;;0.70;;
65753;SDS011;52488;47.502;18.940;2023-01-19T05:58:35;0.62;;;0.57;;
65753;SDS011;52488;47.502;18.940;2023-01-19T05:59:40;0.70;;;0.60;;
65753;SDS011;52488;47.502;18.940;2023-01-19T06:00:43;0.40;;;0.40;;
65753;SDS011;52488;47.502;18.940;2023-01-19T06:01:46;0.60;;;0.60;;
65753;SDS011;52488;47.502;18.940;2023-01-19T06:02:49;1.33;;;0.93;;
65753;SDS011;52488;47.502;18.940;2023-01-19T06:03:52;0.88;;;0.70;;
65753;SDS011;52488;47.502;18.940;2023-01-19T06:04:56;0.77;;;0.73;;
65753;SDS011;52488;47.502;18.940;2023-01-19T06:05:59;1.15;;;0.65;;
65753;SDS011;52488;47.502;18.940;2023-01-19T06:07:03;0.90;;;0.70;;
65753;SDS011;52488;47.502;18.940;2023-01-19T06:08:08;0.82;;;0.82;;
65753;SDS011;52488;47.502;18.940;2023-01-19T06:09:11;0.95;;;0.70;;
65753;SDS011;52488;47.502;18.940;2023-01-19T06:10:14;0.85;;;0.77;;
65753;SDS011;52488;47.502;18.940;2023-01-19T06:11:17;1.50;;;0.80;;
65753;SDS011;52488;47.502;18.940;2023-01-19T06:12:20;1.00;;;0.70;;
65753;SDS011;52488;47.502;18.940;2023-01-19T06:13:23;1.02;;;0.93;;
65753;SDS011;52488;47.502;18.940;2023-01-19T06:14:26;0.88;;;0.70;;
65753;SDS011;52488;47.502;18.940;2023-01-19T06:15:29;0.80;;;0.80;;
65753;SDS011;52488;47.502;18.940;2023-01-19T06:16:32;0.82;;;0.70;;
65753;SDS011;52488;47.502;18.940;2023-01-19T06:17:36;0.88;;;0.65;;
65753;SDS011;52488;47.502;18.940;2023-01-19T06:18:39;0.70;;;0.70;;
65753;SDS011;52488;47.502;18.940;2023-01-19T06:19:42;1.30;;;0.85;;
65753;SDS011;52488;47.502;18.940;2023-01-19T06:20:45;0.60;;;0.60;;
65753;SDS011;52488;47.502;18.940;2023-01-19T06:21:48;2.50;;;0.82;;
65753;SDS011;52488;47.502;18.940;2023-01-19T06:22:55;1.30;;;1.00;;
65753;SDS011;52488;47.502;18.940;2023-01-19T06:23:59;1.08;;;0.80;;
65753;SDS011;52488;47.502;18.940;2023-01-19T06:25:02;0.93;;;0.82;;
65753;SDS011;52488;47.502;18.940;2023-01-19T06:26:05;1.08;;;0.70;;
65753;SDS011;52488;47.502;18.940;2023-01-19T06:27:08;2.15;;;1.00;;
65753;SDS011;52488;47.502;18.940;2023-01-19T06:28:12;1.95;;;1.00;;
65753;SDS011;52488;47.502;18.940;2023-01-19T06:29:15;2.15;;;1.25;;
65753;SDS011;52488;47.502;18.940;2023-01-19T06:30:20;1.75;;;1.23;;
65753;SDS011;52488;47.502;18.940;2023-01-19T06:31:23;2.30;;;1.00;;
65753;SDS011;52488;47.502;18.940;2023-01-19T06:32:26;1.75;;;1.20;;
65753;SDS011;52488;47.502;18.940;2023-01-19T06:33:32;2.75;;;1.45;;
65753;SDS011;52488;47.502;18.940;2023-01-19T06:34:35;3.10;;;1.45;;
65753;SDS011;52488;47.502;18.940;2023-01-19T06:35:38;1.62;;;1.37;;
65753;SDS011;52488;47.502;18.940;2023-01-19T06:36:45;2.25;;;1.67;;
65753;SDS011;52488;47.502;18.940;2023-01-19T06:37:48;2.15;;;1.60;;
65753;SDS011;52488;47.502;18.940;2023-01-19T06:38:51;2.85;;;1.48;;
65753;SDS011;52488;47.502;18.940;2023-01-19T06:39:56;2.67;;;1.70;;